HOURLY OBS INDEX

005

Pilbara - Fortescue

BARROW ISLAND AIRPORT

Site: 005094
Alt: 6.4m
90km NNE of ONSLOW


  Time     Wind        Temp  DP   Baro     Rain since   Rain past  Vis(m), Cloud(base in m), Weather
  local        km/h                         9am  last   hr   10m    
Mon 09:00  ENE 32/ 37  23.3 17.7  1017.4    0.0   0.0   0.0   0.0   ----- 
Mon 09:30  ENE 32/ 37  23.4 17.6  1017.6    0.0   0.0   0.0   0.0   ----- 
Mon 10:00  ENE 32/ 37  23.4 17.2  1017.7    0.0   0.0   0.0   0.0   ----- 
Mon 10:30  ENE 32/ 37  23.6 17.1  1017.4    0.0   0.0   0.0   0.0   ----- 
Mon 11:00  ENE 35/ 41  23.4 17.6  1016.9    0.0   0.0   0.0   0.0   ----- 
Mon 11:30  ENE 35/ 39  23.4 17.4  1016.5    0.0   0.0   0.0   0.0   ----- 
Mon 12:00  ENE 35/ 41  23.3 17.7  1016.1    0.0   0.0   0.0   0.0   ----- 
Mon 12:30  ENE 39/ 45  23.4 17.8  1015.5    0.0   0.0   0.0   0.0   ----- 
Mon 13:00  ENE 37/ 43  23.9 18.3  1015.1    0.0   0.0   0.0   0.0   ----- 
Mon 13:30  ENE 35/ 41  23.5 18.8  1014.7    0.0   0.0   0.0   0.0   ----- 
Mon 14:00  ENE 37/ 43  23.7 18.8  1014.6    0.0   0.0   0.0   0.0   ----- 

BOOLGEEDA AIRPORT

Site: 005BGD
Alt: 585m
207km SSE of KARRATHA


  Time     Wind        Temp  DP   Baro     Rain since   Rain past  Vis(m), Cloud(base in m), Weather
  local        km/h                         9am  last   hr   10m    
Mon 09:00  ENE 17/ 24  21.1 -1.4  1021.1    0.0   0.0   0.0   0.0   10000 
Mon 09:30   NE 20/ 30  22.0 -0.7  1020.9    0.0   0.0   0.0   0.0   10000 
Mon 10:00  NNE 24/ 32  23.0 -0.5  1020.8    0.0   0.0   0.0   0.0   10000 
Mon 10:30  NNE 22/ 30  23.6 -0.6  1020.5    0.0   0.0   0.0   0.0   10000 
Mon 11:00  NNE 22/ 33  23.7  0.1  1020.3    0.0   0.0   0.0   0.0   10000 
Mon 11:30  NNE 22/ 30  24.4  0.0  1019.6    0.0   0.0   0.0   0.0   10000 
Mon 12:00   NE 22/ 32  25.2  0.7  1019.0    0.0   0.0   0.0   0.0   10000 
Mon 12:30  NNE 20/ 28  25.5  0.9  1018.6    0.0   0.0   0.0   0.0   10000 
Mon 13:00  NNE 19/ 24  25.9  1.9  1018.1    0.0   0.0   0.0   0.0   10000 
Mon 13:30    N 17/ 28  26.3  2.9  1017.6    0.0   0.0   0.0   0.0   10000 
Mon 14:00    N 17/ 30  26.7  3.2  1017.6    0.0   0.0   0.0   0.0   10000 

CHRISTMAS CREEK MINE AP

Site: 005CHK
Alt: m
111km N of NEWMAN


  Time     Wind        Temp  DP   Baro     Rain since   Rain past  Vis(m), Cloud(base in m), Weather
  local        km/h                         9am  last   hr   10m    
Mon 09:00    S  4/  7  16.5  4.9  1022.1    0.0   0.0   0.0   0.0   10000 
Mon 09:30   NE 20/ 30  20.0  1.0  1022.0    0.0   0.0   0.0   0.0   10000 
Mon 10:00  ENE 22/ 32  20.9  1.2  1021.7    0.0   0.0   0.0   0.0   10000 
Mon 10:30   NE 20/ 41  21.6  1.3  1021.5    0.0   0.0   0.0   0.0   10000 
Mon 11:00  NNE 15/ 24  22.1  0.6  1021.1    0.0   0.0   0.0   0.0   10000 
Mon 11:30  ENE 13/ 22  22.5  0.9  1020.4    0.0   0.0   0.0   0.0   10000 
Mon 12:00    N 11/ 20  23.2  0.9  1020.1    0.0   0.0   0.0   0.0   10000 
Mon 12:30  ENE 11/ 19  23.3  1.0  1019.4    0.0   0.0   0.0   0.0   10000 
Mon 13:00    E  9/ 19  23.7  1.4  1018.8    0.0   0.0   0.0   0.0   10000 
Mon 13:30    E 13/ 20  23.9  1.5  1018.3    0.0   0.0   0.0   0.0   10000 
Mon 14:00  ENE  7/ 17  24.6  1.5  1018.1    0.0   0.0   0.0   0.0   10000 

FORTESCUE DAVE FORREST AP

Site: 005FDF
Alt: 450m
124km NNW of NEWMAN


  Time     Wind        Temp  DP   Baro     Rain since   Rain past  Vis(m), Cloud(base in m), Weather
  local        km/h                         9am  last   hr   10m    
Mon 09:00  ENE 19/ 26  18.4  1.0  1022.1    0.0   0.0   0.0   0.0   10000 
Mon 09:30   NE 22/ 32  19.2  1.2  1022.0    0.0   0.0   0.0   0.0   10000 
Mon 10:00  ENE 22/ 30  19.8  0.8  1021.7    0.0   0.0   0.0   0.0   10000 
Mon 10:30   NE 19/ 28  20.6  1.0  1021.5    0.0   0.0   0.0   0.0   10000 
Mon 11:00   NE 17/ 22  21.2  1.0  1021.1    0.0   0.0   0.0   0.0   10000 
Mon 11:30  ENE  9/ 15  21.8  0.9  1020.5    0.0   0.0   0.0   0.0   10000 
Mon 12:00   NE 11/ 19  22.5  0.9  1020.2    0.0   0.0   0.0   0.0   10000 
Mon 12:30    E  7/ 11  22.8  1.2  1019.5    0.0   0.0   0.0   0.0   10000 
Mon 13:00   NE  6/ 17  23.4  1.1  1018.9    0.0   0.0   0.0   0.0   10000 
Mon 13:30  ENE  9/ 17  23.8  1.4  1018.4    0.0   0.0   0.0   0.0   10000 
Mon 14:00  NNW  4/ 13  24.1  1.7  1018.2    0.0   0.0   0.0   0.0   10000 

LEARMONTH AIRPORT

Site: 005007
Alt: 5.0m
34km S of EXMOUTH


  Time     Wind        Temp  DP   Baro     Rain since   Rain past  Vis(m), Cloud(base in m), Weather
  local        km/h                         9am  last   hr   10m    
Mon 09:00    S 19/ 24  20.6 18.7  1017.5    0.0   0.0   0.0   0.0   10000|OC 330 
Mon 09:30    S 15/ 19  21.4 19.1  1017.4    0.0   0.0   0.0   0.0   10000|BR 450 OC 690 
Mon 09:38    S 13/ 17  21.6 18.6  1017.3    0.0   0.0  ----   0.0   10000|BR 450 BR 660 OC1110 
Mon 10:00   SE  9/ 13  22.0 18.2  1017.3    0.0   0.0   0.0   0.0   10000|BR 510 BR 930 OC2310 
Mon 10:30   SE 13/ 19  22.4 17.5  1017.0    0.0   0.0   0.0   0.0   10000|BR 510 BR1470 OC2910 
Mon 11:00    E 15/ 19  22.7 16.3  1016.6    0.0   0.0   0.0   0.0   10000|BR 510 BR 690 OC1830 
Mon 11:30  ENE 17/ 20  21.8 17.6  1016.2    0.0   0.0   0.0   0.0   10000|BR 510 BR 690 OC1860 
Mon 12:00    E 11/ 17  21.3 17.3  1016.2    0.4   0.4   0.4   0.0   10000|OC 510 
Mon 12:29    W 32/ 39  19.5 16.9  1016.1    2.0   1.6  ----   1.2    9000|SC 570 OC 780 
Mon 12:30    W 30/ 39  19.5 16.9  1016.2    2.0   0.0   2.0   0.8    9000|SC 570 OC 780 
Mon 12:33    W 26/ 39  19.3 16.7  1016.4    3.4   1.4  ----   2.0    6000|SC 570 OC 840 
Mon 12:48    S 19/ 22  18.5 17.7  1016.2   14.8  11.4  ----   8.6    1400|SC 300 BR 360 OC 840 
Mon 13:00    S 15/ 24  18.5 17.8  1016.1   20.0   5.2  19.6   4.4    2700|BR 300 BR 450 OC 840 
Mon 13:23    S 19/ 22  18.4 17.9  1015.7   24.8   4.8  ----   1.2    7000|SC 300 BR 690 OC1020 
Mon 13:23    S 19/ 22  18.4 17.9  1015.7   24.8   0.0  ----   1.2    7000|SC 300 BR 690 OC1020 
Mon 13:30    S 17/ 22  18.4 17.9  1015.7   25.2   0.4  23.2   0.6    8000|SC 510 BR 840 OC1050 
Mon 13:32    S 19/ 24  18.3 17.8  1015.7   25.2   0.0  ----   0.6    8000|SC 510 BR 840 OC1050 
Mon 13:41  SSE 22/ 24  18.1 17.5  1015.6   26.8   1.6  ----   1.6    6000|SC 660 BR 840 OC1260 
Mon 14:00  SSE 22/ 26  18.1 17.5  1015.6   28.4   1.6   8.4   0.4    8000|SC 570 BR 870 OC1260 
Mon 14:04  SSE 20/ 26  18.1 17.5  1015.6   28.8   0.4  ----   0.6    9000|BR 570 BR 810 OC1050 
Mon 14:16    S 22/ 30  18.2 17.7  1015.8   30.2   0.0   0.0   1.2    6000|BR 570 OC 900 

MARDIE

Site: 005008
Alt: 11.0m
103km ENE of ONSLOW


  Time     Wind        Temp  DP   Baro     Rain since   Rain past  Vis(m), Cloud(base in m), Weather
  local        km/h                         9am  last   hr   10m    
Mon 09:00  ENE 30/ 35  24.8  2.3  1017.7    0.0   0.0   0.0   0.0   ----- 
Mon 09:30  ENE 28/ 35  25.7  3.6  1017.8    0.0   0.0   0.0   0.0   ----- 
Mon 10:00  ENE 28/ 35  26.6  5.0  1017.8    0.0   0.0   0.0   0.0   ----- 
Mon 10:30  ENE 26/ 37  27.5  6.8  1017.8    0.0   0.0   0.0   0.0   ----- 
Mon 11:00   NE 28/ 35  27.6  8.0  1017.2    0.0   0.0   0.0   0.0   ----- 
Mon 11:30   NE 30/ 39  28.1  8.4  1016.7    0.0   0.0   0.0   0.0   ----- 
Mon 12:00   NE 26/ 35  28.5  9.2  1016.1    0.0   0.0   0.0   0.0   ----- 
Mon 12:30   NE 26/ 35  28.0  9.8  1015.6    0.0   0.0   0.0   0.0   ----- 
Mon 13:00   NE 24/ 32  28.5 10.7  1015.1    0.0   0.0   0.0   0.0   ----- 
Mon 13:30  NNE 28/ 41  28.4 10.6  1014.5    0.0   0.0   0.0   0.0   ----- 
Mon 14:00   NE 30/ 37  28.1 11.2  1014.5    0.0   0.0   0.0   0.0   ----- 

ONSLOW AIRPORT

Site: 005017
Alt: 10.5m
3km S of ONSLOW


  Time     Wind        Temp  DP   Baro     Rain since   Rain past  Vis(m), Cloud(base in m), Weather
  local        km/h                         9am  last   hr   10m    
Mon 09:00   NE 30/ 43  23.7  7.3  1017.9    0.0   0.0   0.0   0.0   ----- 
Mon 09:30  ENE 28/ 39  23.2  8.1  1017.9    0.0   0.0   0.0   0.0   ----- 
Mon 10:00   NE 32/ 41  24.0  8.4  1017.8    0.0   0.0   0.0   0.0   ----- 
Mon 10:30   NE 32/ 45  24.8  9.9  1017.3    0.0   0.0   0.0   0.0   ----- 
Mon 11:00   NE 32/ 41  25.3 11.5  1017.0    0.0   0.0   0.0   0.0   ----- 
Mon 11:30   NE 32/ 39  24.6 11.9  1016.5    0.0   0.0   0.0   0.0   ----- 
Mon 12:00  NNE 32/ 41  25.6 13.1  1016.1    0.0   0.0   0.0   0.0   ----- 
Mon 12:30  NNE 32/ 43  25.6 15.0  1015.7    0.0   0.0   0.0   0.0   ----- 
Mon 13:00  NNE 35/ 45  25.5 16.1  1015.3    0.0   0.0   0.0   0.0   ----- 
Mon 13:30  NNE 39/ 48  25.0 16.4  1014.9    0.0   0.0   0.0   0.0   ----- 
Mon 14:00  NNE 33/ 43  24.3 16.0  1014.6    0.0   0.0   0.0   0.0   ----- 

SOLOMON AERODROME

Site: 005SOL
Alt: 625m
235km WSW of MARBLE BAR


  Time     Wind        Temp  DP   Baro     Rain since   Rain past  Vis(m), Cloud(base in m), Weather
  local        km/h                         9am  last   hr   10m    
Mon 09:00   NE 26/ 37  19.6 -2.7  1021.6    0.0   0.0   0.0   0.0   10000 
Mon 09:30   NE 26/ 39  19.9 -1.8  1021.5    0.0   0.0   0.0   0.0   10000 
Mon 10:00   NE 22/ 32  20.4 -1.4  1021.6    0.0   0.0   0.0   0.0   10000 
Mon 10:30   NE 24/ 37  20.9 -1.0  1021.3    0.0   0.0   0.0   0.0   10000 
Mon 11:00   NE 19/ 30  21.4 -0.6  1021.1    0.0   0.0   0.0   0.0   10000 
Mon 11:30   NE 17/ 28  22.1  0.6  1020.5    0.0   0.0   0.0   0.0   10000 
Mon 12:00  NNE 13/ 22  22.7  1.1  1020.1    0.0   0.0   0.0   0.0   10000 
Mon 12:30  NNE 19/ 32  22.9  1.3  1019.4    0.0   0.0   0.0   0.0   10000 
Mon 13:00   NE 13/ 19  23.8  2.0  1018.8    0.0   0.0   0.0   0.0   10000 
Mon 13:30   NE 13/ 20  23.7  2.5  1018.5    0.0   0.0   0.0   0.0   10000 
Mon 14:00   NE 11/ 24  24.0  2.2  1018.3    0.0   0.0   0.0   0.0   10000